Time;durP1;ratioP1;P1;durP2;ratioP2;P2;SDS_P1;SDS_P2;PMS_P1;PMS_P2;Temp;Humidity;BMP_temperature;BMP_pressure;BME280_temperature;BME280_humidity;BME280_pressure;Samples;Min_cycle;Max_cycle;Signal;HPM_P1;HPM_P2
2021/12/01 00:01:11;;;;;;;8.28;6.22;;;;;;;-0.53;72.67;97617.23;1699287;83;20460;-57
2021/12/01 00:03:40;;;;;;;6.85;5.97;;;;;;;-0.51;72.74;97612.90;1690684;84;21455;-56
2021/12/01 00:06:08;;;;;;;8.38;6.60;;;;;;;-0.47;72.62;97614.48;1692497;83;21791;-57
2021/12/01 00:08:35;;;;;;;7.17;6.47;;;;;;;-0.44;72.44;97618.24;1690832;83;21005;-57
2021/12/01 00:11:03;;;;;;;6.90;6.20;;;;;;;-0.36;71.88;97627.05;1687984;83;21534;-57
2021/12/01 00:13:32;;;;;;;6.90;6.12;;;;;;;-0.38;71.76;97628.00;1680633;83;21582;-57
2021/12/01 00:16:01;;;;;;;10.78;6.95;;;;;;;-0.34;71.57;97620.55;1696669;84;21543;-57
2021/12/01 00:18:28;;;;;;;7.53;6.17;;;;;;;-0.32;71.86;97628.66;1691111;84;21784;-57
2021/12/01 00:20:56;;;;;;;6.90;6.20;;;;;;;-0.27;71.58;97627.22;1694351;84;21571;-57
2021/12/01 00:23:24;;;;;;;6.58;5.80;;;;;;;-0.35;83.79;97627.91;1696361;83;21527;-58
2021/12/01 00:25:52;;;;;;;10.18;7.08;;;;;;;-0.36;84.85;97630.91;1694378;84;20971;-59
2021/12/01 00:28:18;;;;;;;;;;;;;;;-0.38;85.32;97627.54;1638123;85;21444;-59
2021/12/01 00:30:46;;;;;;;7.00;6.20;;;;;;;-0.38;83.96;97622.83;1648973;85;21676;-59
2021/12/01 00:33:14;;;;;;;5.95;5.20;;;;;;;-0.43;84.85;97619.11;1644136;85;21923;-59
2021/12/01 00:35:41;;;;;;;7.97;6.15;;;;;;;-0.38;81.41;97622.37;1684928;84;117858;-58
2021/12/01 00:38:08;;;;;;;;;;;;;;;-0.27;83.08;97613.84;1677386;84;816724;-58
2021/12/01 00:40:35;;;;;;;9.03;7.00;;;;;;;-0.22;80.78;97608.55;1672527;84;701448;-58
2021/12/01 00:43:02;;;;;;;9.98;6.40;;;;;;;-144.96;100.00;113563.53;1682669;84;112312;-59
2021/12/01 00:45:32;;;;;;;8.55;7.12;;;;;;;-0.30;81.98;97596.31;1573216;83;974320;-59
2021/12/01 00:47:59;;;;;;;9.63;7.58;;;;;;;-0.23;81.67;97585.77;1681342;83;21274;-59
2021/12/01 00:50:33;;;;;;;8.93;6.95;;;;;;;-0.26;78.78;97591.02;1695200;83;22438;-59
2021/12/01 00:53:05;;;;;;;11.05;7.67;;;;;;;-0.31;78.20;97583.02;1696208;83;20961;-60
2021/12/01 00:55:32;;;;;;;9.40;6.60;;;;;;;-0.29;77.01;97579.94;1703017;83;21608;-57
2021/12/01 00:57:59;;;;;;;7.15;6.45;;;;;;;-0.28;76.62;97581.64;1692995;83;21488;-57
2021/12/01 01:00:27;;;;;;;9.17;6.53;;;;;;;-0.24;76.48;97580.64;1640913;85;21459;-58
2021/12/01 01:02:56;;;;;;;7.67;6.87;;;;;;;-0.20;76.28;97579.19;1687801;84;22411;-58
2021/12/01 01:05:23;;;;;;;7.15;6.45;;;;;;;-0.15;75.79;97581.64;1651986;85;21454;-58
2021/12/01 01:07:51;;;;;;;;;;;;;;;-0.15;75.40;97576.89;1641874;86;21514;-57
2021/12/01 01:18:24;;;;;;;7.00;6.30;;;;;;;-0.14;74.64;97573.43;1676909;84;21966;-57
2021/12/01 01:20:51;;;;;;;8.00;6.53;;;;;;;-0.16;75.06;97567.47;1688734;83;21603;-57
2021/12/01 01:23:19;;;;;;;9.63;7.40;;;;;;;-0.20;76.61;97567.56;1692276;83;21603;-57
2021/12/01 01:25:46;;;;;;;7.00;6.30;;;;;;;-0.26;75.99;97565.19;1695266;83;21530;-57
2021/12/01 01:28:13;;;;;;;8.00;7.20;;;;;;;-0.30;76.29;97554.56;1696492;83;21797;-56
2021/12/01 01:30:40;;;;;;;6.60;5.62;;;;;;;-0.35;77.10;97556.44;1690037;83;21018;-57
2021/12/01 01:33:07;;;;;;;6.60;5.97;;;;;;;-0.37;77.54;97550.48;1697130;83;21570;-56
2021/12/01 01:35:34;;;;;;;6.60;6.00;;;;;;;-0.36;76.93;97543.58;1696607;83;21499;-55
2021/12/01 01:38:02;;;;;;;8.65;6.37;;;;;;;-0.40;77.40;97538.53;1689974;83;21597;-56
2021/12/01 01:40:29;;;;;;;10.13;6.22;;;;;;;-0.47;77.19;97532.29;1691098;83;21833;-57
2021/12/01 01:42:56;;;;;;;8.67;6.13;;;;;;;-0.51;80.18;97527.70;1699904;83;20996;-56
2021/12/01 01:45:23;;;;;;;7.53;6.23;;;;;;;-0.60;84.50;97523.66;1698953;83;22223;-57
2021/12/01 01:48:04;;;;;;;7.78;6.15;;;;;;;-0.57;85.73;97523.17;1691827;83;21677;-57
2021/12/01 01:50:38;;;;;;;7.37;6.12;;;;;;;-0.62;86.07;97520.30;1681978;83;21606;-56
2021/12/01 01:53:19;;;;;;;7.35;6.22;;;;;;;-0.74;86.14;97522.41;1683768;83;21489;-56
2021/12/01 01:55:49;;;;;;;8.05;6.40;;;;;;;-0.80;86.55;97519.57;1696260;83;21586;-57
2021/12/01 01:58:16;;;;;;;6.87;6.17;;;;;;;-0.84;87.64;97516.23;1645963;85;21519;-56
2021/12/01 02:03:16;;;;;;;7.90;6.45;;;;;;;-0.84;87.36;97510.24;1602869;85;20951;-57
2021/12/01 02:05:43;;;;;;;6.67;6.08;;;;;;;-0.88;89.61;97513.36;1683662;84;21763;-56
2021/12/01 02:08:27;;;;;;;6.60;5.93;;;;;;;-0.92;89.54;97500.59;1642043;85;21526;-56
2021/12/01 02:10:50;;;;;;;8.28;6.33;;;;;;;-0.96;91.03;97497.70;1660934;84;21818;-57
2021/12/01 02:13:18;;;;;;;;;;;;;;;-0.92;91.92;97499.30;1682945;84;21421;-57
2021/12/01 02:15:48;;;;;;;7.20;6.50;;;;;;;-0.88;92.91;97497.88;1648172;84;20435;-57
2021/12/01 02:18:15;;;;;;;7.90;6.30;;;;;;;-0.87;92.75;97501.30;1678387;84;21836;-57
2021/12/01 02:21:15;;;;;;;7.58;6.78;;;;;;;-0.93;91.63;97497.62;1674710;84;21554;-57
2021/12/01 02:23:49;;;;;;;8.00;6.33;;;;;;;-0.90;91.02;97484.64;1679961;84;21006;-57
2021/12/01 02:26:18;;;;;;;9.13;6.10;;;;;;;-0.87;90.19;97487.10;1682899;84;21011;-58
2021/12/01 02:28:48;;;;;;;7.47;6.10;;;;;;;-0.85;89.60;97478.87;1683645;84;21586;-57
2021/12/01 02:31:15;;;;;;;10.15;6.25;;;;;;;-0.85;90.10;97483.61;1679323;84;21811;-57
2021/12/01 02:33:43;;;;;;;6.42;5.45;;;;;;;-0.87;89.64;97479.36;1628516;87;21578;-57
2021/12/01 02:36:12;;;;;;;6.97;6.12;;;;;;;-0.80;89.87;97476.99;1682673;84;28540;-58
2021/12/01 02:38:40;;;;;;;8.23;5.92;;;;;;;-0.72;88.32;97480.16;1682306;84;21464;-57
2021/12/01 02:41:08;;;;;;;6.37;5.75;;;;;;;-0.76;88.38;97473.41;1687533;84;21428;-58
2021/12/01 02:43:35;;;;;;;8.55;6.17;;;;;;;-0.83;87.63;97468.92;1682132;84;21839;-57
2021/12/01 02:46:03;;;;;;;6.92;5.90;;;;;;;-0.82;87.43;97468.00;1682308;83;21582;-57
2021/12/01 02:48:30;;;;;;;7.37;6.10;;;;;;;-0.83;87.70;97474.08;1680369;84;21533;-57
2021/12/01 02:50:58;;;;;;;8.13;5.78;;;;;;;-0.81;87.41;97470.13;1680439;83;21655;-58
2021/12/01 02:53:25;;;;;;;6.80;6.08;;;;;;;-0.81;87.41;97470.13;1686328;84;21630;-58
2021/12/01 02:55:58;;;;;;;6.65;5.50;;;;;;;-0.80;87.23;97477.83;1679594;84;21814;-58
2021/12/01 02:58:28;;;;;;;7.85;6.35;;;;;;;-0.75;87.06;97475.12;1618452;85;21741;-58
2021/12/01 03:00:57;;;;;;;7.37;6.00;;;;;;;-0.70;86.48;97479.66;1678490;84;21507;-58
2021/12/01 03:03:25;;;;;;;7.58;5.72;;;;;;;-0.75;86.25;97471.67;1696983;83;21699;-58
2021/12/01 03:05:53;;;;;;;8.60;5.47;;;;;;;-0.77;86.27;97478.63;1684435;84;21604;-58
2021/12/01 03:08:20;;;;;;;6.53;5.70;;;;;;;-0.76;86.19;97470.00;1688250;84;22016;-57
2021/12/01 03:10:51;;;;;;;6.30;5.50;;;;;;;-0.72;85.46;97471.59;1692146;83;21546;-57
2021/12/01 03:13:19;;;;;;;7.85;7.05;;;;;;;-0.71;85.38;97464.25;1693852;84;21507;-57
2021/12/01 03:15:47;;;;;;;8.90;6.80;;;;;;;-0.71;85.30;97465.55;1684228;84;21535;-56
2021/12/01 03:18:14;;;;;;;;;;;;;;;-0.70;85.61;97469.80;1694618;83;21571;-56
2021/12/01 03:20:41;;;;;;;11.45;8.90;;;;;;;-0.70;86.11;97461.59;1691150;84;21144;-56
2021/12/01 03:23:08;;;;;;;9.58;7.70;;;;;;;-0.57;84.92;97466.38;1680433;84;20938;-59
2021/12/01 03:25:36;;;;;;;16.83;12.53;;;;;;;-0.64;85.27;97461.84;1697643;83;21479;-59
2021/12/01 03:28:03;;;;;;;25.72;14.33;;;;;;;-0.70;86.37;97464.18;1687274;83;21145;-56
2021/12/01 03:30:37;;;;;;;;;;;;;;;-0.69;87.12;97465.88;1669679;84;21566;-56
2021/12/01 03:33:11;;;;;;;16.90;13.25;;;;;;;-0.61;87.03;97469.50;1691567;84;21901;-56
2021/12/01 03:35:40;;;;;;;12.47;9.78;;;;;;;-0.64;86.71;97465.30;1694039;83;21073;-56
2021/12/01 03:38:07;;;;;;;9.75;8.75;;;;;;;-1.14;87.25;97392.94;1692500;83;21519;-56
2021/12/01 03:40:35;;;;;;;9.15;8.33;;;;;;;-0.68;87.93;97465.42;1693372;84;21468;-56
2021/12/01 03:43:02;;;;;;;9.70;8.70;;;;;;;-0.58;87.89;97461.67;1691706;83;21561;-56
2021/12/01 03:45:29;;;;;;;8.33;7.45;;;;;;;-0.55;87.75;97463.30;1690145;84;21800;-57
2021/12/01 03:47:57;;;;;;;7.15;6.37;;;;;;;-0.55;87.24;97469.75;1692177;84;20987;-57
2021/12/01 03:50:25;;;;;;;7.92;6.75;;;;;;;-0.61;87.59;97462.59;1686713;84;21531;-57
2021/12/01 03:52:52;;;;;;;;;;;;;;;-0.57;87.42;97462.50;1692661;83;21040;-57
2021/12/01 03:55:19;;;;;;;7.22;6.22;;;;;;;-0.50;86.89;97460.95;1698025;84;20443;-57
2021/12/01 03:57:47;;;;;;;7.90;6.75;;;;;;;-0.55;86.90;97464.13;1685433;84;21984;-60
2021/12/01 04:00:15;;;;;;;7.95;6.25;;;;;;;-0.61;86.82;97460.47;1688224;84;21570;-57
2021/12/01 04:02:43;;;;;;;7.72;6.37;;;;;;;-0.58;86.88;97462.96;1693649;84;21562;-57
2021/12/01 04:05:11;;;;;;;6.50;5.90;;;;;;;-0.50;86.68;97462.25;1695952;84;21492;-56
2021/12/01 04:07:39;;;;;;;7.25;6.53;;;;;;;-0.53;87.48;97459.76;1695550;84;21495;-57
2021/12/01 04:10:10;;;;;;;7.97;6.65;;;;;;;-0.55;87.19;97459.42;1690750;84;21773;-57
2021/12/01 04:12:39;;;;;;;7.10;6.40;;;;;;;-0.57;87.42;97453.02;1684110;84;21527;-58
2021/12/01 04:15:11;;;;;;;6.87;6.17;;;;;;;-0.51;89.66;97456.70;1692965;83;21588;-57
2021/12/01 04:17:39;;;;;;;7.00;6.30;;;;;;;-0.47;88.40;97460.87;1697341;83;21459;-58
2021/12/01 04:20:08;;;;;;;11.25;6.60;;;;;;;-0.52;88.98;97458.88;1689612;83;21536;-59
2021/12/01 04:22:36;;;;;;;7.97;6.40;;;;;;;-0.53;89.00;97462.34;1676927;84;21754;-58
2021/12/01 04:25:04;;;;;;;7.15;6.37;;;;;;;-0.47;89.36;97462.58;1691524;84;21706;-58
2021/12/01 04:27:31;;;;;;;6.62;5.90;;;;;;;-0.37;88.16;97454.11;1633179;85;21451;-58
2021/12/01 04:29:58;;;;;;;7.20;6.50;;;;;;;-0.44;87.80;97458.16;1693099;83;21420;-57
2021/12/01 04:32:25;;;;;;;7.30;6.47;;;;;;;-0.48;87.60;97450.59;1685355;84;21567;-58
2021/12/01 04:34:53;;;;;;;6.97;6.28;;;;;;;-0.46;87.86;97452.21;1688219;84;22242;-58
2021/12/01 04:37:20;;;;;;;6.47;5.78;;;;;;;-0.31;87.41;97453.44;1688049;83;21451;-58
2021/12/01 04:39:47;;;;;;;8.13;6.72;;;;;;;-0.30;87.69;97448.68;1692771;84;21521;-58
2021/12/01 04:42:16;;;;;;;7.12;5.90;;;;;;;-0.34;87.85;97443.66;1685794;84;21485;-58
2021/12/01 04:44:43;;;;;;;8.13;6.10;;;;;;;-0.40;90.07;97448.16;1687779;84;21324;-58
2021/12/01 04:47:14;;;;;;;7.75;6.45;;;;;;;-0.36;87.65;97447.58;1696478;83;21807;-58
2021/12/01 04:49:40;;;;;;;11.90;9.60;;;;;;;-0.27;86.83;97447.72;1694612;83;21054;-57
2021/12/01 04:52:08;;;;;;;;;;;;;;;-0.30;86.49;97440.94;1699629;83;21532;-58
2021/12/01 04:54:35;;;;;;;6.92;6.22;;;;;;;-0.33;86.27;97441.48;1697034;83;20422;-58
2021/12/01 04:57:06;;;;;;;6.17;5.40;;;;;;;-0.43;86.51;97446.13;1685263;83;21593;-57
2021/12/01 04:59:34;;;;;;;6.03;5.42;;;;;;;-0.40;86.58;97439.12;1681198;83;21782;-57
2021/12/01 05:02:01;;;;;;;6.80;5.62;;;;;;;-0.30;86.39;97446.52;1701815;83;21451;-57
2021/12/01 05:04:28;;;;;;;7.37;6.40;;;;;;;-0.28;86.15;97451.22;1694827;83;20955;-58
2021/12/01 05:06:55;;;;;;;6.90;5.83;;;;;;;-0.30;86.05;97454.27;1632482;86;21567;-57
2021/12/01 05:09:23;;;;;;;7.37;5.58;;;;;;;-0.28;86.10;97456.38;1681991;84;21533;-58
2021/12/01 05:11:50;;;;;;;6.50;5.73;;;;;;;-0.15;86.18;97459.36;1690587;84;21764;-57
2021/12/01 05:14:17;;;;;;;7.40;6.00;;;;;;;-0.14;86.65;97455.44;1685109;84;21415;-57
2021/12/01 05:16:44;;;;;;;6.65;5.50;;;;;;;-0.18;86.84;97459.03;1692251;84;21481;-58
2021/12/01 05:19:12;;;;;;;5.50;5.00;;;;;;;-0.17;86.67;97459.87;1637678;85;21649;-58
2021/12/01 05:21:40;;;;;;;5.63;5.10;;;;;;;-0.18;86.78;97460.32;1681096;84;21637;-57
2021/12/01 05:24:07;;;;;;;6.33;5.50;;;;;;;-0.05;86.31;97460.29;1670901;84;21869;-57
2021/12/01 05:26:34;;;;;;;5.97;5.37;;;;;;;-0.05;85.98;97466.75;1692120;84;25694;-57
2021/12/01 05:29:01;;;;;;;7.53;5.67;;;;;;;-0.10;86.00;97469.93;1643046;85;21458;-58
2021/12/01 05:31:29;;;;;;;8.15;5.85;;;;;;;-0.12;86.63;97472.19;1679544;83;21487;-57
2021/12/01 05:33:56;;;;;;;6.22;5.62;;;;;;;-0.06;87.07;97475.41;1694282;84;20983;-58
2021/12/01 05:36:23;;;;;;;6.33;5.73;;;;;;;0.03;86.41;97473.39;1680799;84;21740;-58
2021/12/01 05:38:50;;;;;;;6.50;5.70;;;;;;;0.03;86.01;97473.39;1641930;85;21530;-58
2021/12/01 05:41:17;;;;;;;5.85;5.22;;;;;;;-0.01;85.95;97481.24;1673907;84;21461;-59
2021/12/01 05:43:44;;;;;;;5.58;5.05;;;;;;;0.02;86.03;97489.78;1680186;84;21605;-59
2021/12/01 05:46:11;;;;;;;7.87;5.85;;;;;;;0.16;85.58;97500.48;1684397;84;21655;-58
2021/12/01 05:48:39;;;;;;;5.90;5.30;;;;;;;0.23;85.05;97503.26;1670765;83;21816;-58
2021/12/01 05:51:06;;;;;;;6.58;5.85;;;;;;;0.13;85.13;97501.87;1687706;83;21504;-58
2021/12/01 05:53:34;;;;;;;7.45;5.83;;;;;;;0.08;85.36;97507.22;1676985;83;21513;-58
2021/12/01 05:56:01;;;;;;;6.15;5.45;;;;;;;0.11;85.96;97507.09;1688686;84;21504;-59
2021/12/01 05:58:29;;;;;;;5.95;5.35;;;;;;;0.28;85.73;97519.88;1676342;84;21475;-58
2021/12/01 06:00:56;;;;;;;6.22;5.42;;;;;;;0.29;84.86;97510.79;1695432;84;21789;-57
2021/12/01 06:03:23;;;;;;;6.35;5.62;;;;;;;0.21;84.71;97515.82;1692403;83;21452;-58
2021/12/01 06:05:50;;;;;;;6.08;5.33;;;;;;;0.16;84.97;97516.00;1693768;84;20970;-57
2021/12/01 06:08:17;;;;;;;6.62;5.47;;;;;;;0.24;85.07;97525.61;1694237;83;21030;-58
2021/12/01 06:10:44;;;;;;;9.60;6.25;;;;;;;0.32;85.00;97524.04;1695200;84;22767;-58
2021/12/01 06:13:16;;;;;;;7.08;6.37;;;;;;;0.32;84.64;97527.49;1646018;85;21801;-58
2021/12/01 06:15:50;;;;;;;6.37;5.70;;;;;;;0.28;84.85;97528.47;1674356;84;21578;-58
2021/12/01 06:18:17;;;;;;;7.45;5.83;;;;;;;0.22;85.13;97531.28;1689613;84;21576;-58
2021/12/01 06:20:45;;;;;;;5.83;5.30;;;;;;;0.31;85.15;97537.42;1685883;84;21760;-58
2021/12/01 06:23:13;;;;;;;6.28;5.40;;;;;;;0.39;84.46;97540.57;1681032;84;21097;-58
2021/12/01 06:25:40;;;;;;;;;;;;;;;0.35;84.58;97543.33;1696344;84;21807;-59
2021/12/01 06:28:07;;;;;;;5.25;4.75;;;;;;;0.32;84.42;97544.72;1692546;83;20406;-58
2021/12/01 06:30:36;;;;;;;6.40;5.22;;;;;;;0.34;84.80;97543.80;1685488;84;21484;-58
2021/12/01 06:33:03;;;;;;;6.47;5.33;;;;;;;0.45;84.53;97547.27;1686870;84;21561;-58
2021/12/01 06:35:30;;;;;;;7.42;5.12;;;;;;;0.44;84.20;97555.94;1685910;84;21679;-57
2021/12/01 06:37:57;;;;;;;6.35;5.75;;;;;;;0.39;84.39;97557.84;1682524;84;22066;-56
2021/12/01 06:40:24;;;;;;;5.67;4.95;;;;;;;0.38;84.66;97565.21;1688732;84;21496;-55
2021/12/01 06:42:51;;;;;;;7.25;5.15;;;;;;;0.50;84.89;97567.81;1681522;84;21554;-56
2021/12/01 06:45:19;;;;;;;5.90;5.40;;;;;;;0.59;84.37;97563.60;1688134;84;21629;-56
2021/12/01 06:48:08;;;;;;;5.60;5.10;;;;;;;0.62;84.04;97568.65;1671413;83;21532;-59
2021/12/01 06:50:35;;;;;;;6.12;5.53;;;;;;;0.61;84.04;97568.73;1710531;81;21834;-58
2021/12/01 06:53:04;;;;;;;6.43;5.43;;;;;;;0.58;84.09;97564.06;1704364;81;21556;-57
2021/12/01 06:55:31;;;;;;;6.17;5.58;;;;;;;0.74;84.02;97567.39;1703362;81;21429;-58
2021/12/01 06:57:58;;;;;;;5.15;4.62;;;;;;;0.77;83.50;97571.13;1702013;83;21003;-57
2021/12/01 07:00:25;;;;;;;5.97;5.28;;;;;;;0.74;83.53;97579.86;1668148;84;21457;-57
2021/12/01 07:02:52;;;;;;;5.87;4.95;;;;;;;0.71;83.57;97579.13;1679212;83;26979;-57
2021/12/01 07:05:19;;;;;;;6.53;4.75;;;;;;;0.73;83.74;97588.51;1670273;83;21154;-57
2021/12/01 07:07:46;;;;;;;5.50;5.00;;;;;;;0.91;83.52;97593.48;1677451;83;21590;-56
2021/12/01 07:10:14;;;;;;;6.58;4.97;;;;;;;0.99;83.33;97598.37;1661827;84;21000;-57
2021/12/01 07:12:41;;;;;;;7.40;4.90;;;;;;;1.04;82.74;97608.11;1678005;82;21650;-57
2021/12/01 07:15:09;;;;;;;6.70;4.92;;;;;;;1.02;82.68;97615.09;1684182;83;21775;-58
2021/12/01 07:17:38;;;;;;;7.50;5.45;;;;;;;0.99;82.34;97619.53;1688413;84;21573;-58
2021/12/01 07:20:06;;;;;;;6.78;4.90;;;;;;;1.08;82.07;97624.38;1695802;84;21477;-57
2021/12/01 07:22:33;;;;;;;7.37;5.17;;;;;;;1.11;81.76;97623.81;1695549;84;21528;-56
2021/12/01 07:25:00;;;;;;;7.77;6.13;;;;;;;1.09;81.76;97628.20;1691097;84;21498;-56
2021/12/01 07:27:27;;;;;;;5.37;4.87;;;;;;;1.08;81.72;97630.39;1695566;83;21814;-57
2021/12/01 07:29:54;;;;;;;5.45;4.85;;;;;;;1.09;81.97;97632.09;1695662;82;24003;-57
2021/12/01 07:32:21;;;;;;;4.97;4.47;;;;;;;1.19;81.73;97626.12;1701628;82;21496;-57
2021/12/01 07:34:48;;;;;;;6.47;5.13;;;;;;;1.28;81.72;97624.48;1710587;82;21071;-57
2021/12/01 07:37:17;;;;;;;6.58;5.03;;;;;;;1.36;81.45;97629.37;1694810;84;21453;-57
2021/12/01 07:39:45;;;;;;;5.90;4.97;;;;;;;1.38;81.01;97626.73;1694635;84;21845;-56
2021/12/01 07:42:13;;;;;;;5.33;4.83;;;;;;;1.36;81.08;97628.91;1695219;82;21521;-56
2021/12/01 07:44:40;;;;;;;6.25;5.10;;;;;;;1.39;80.83;97627.94;1695289;84;21494;-55
2021/12/01 07:47:08;;;;;;;4.60;4.20;;;;;;;1.44;80.79;97631.66;1695608;82;21084;-56
2021/12/01 07:49:36;;;;;;;5.72;4.22;;;;;;;1.54;80.57;97632.56;1711254;81;21437;-57
2021/12/01 07:52:05;;;;;;;7.78;5.20;;;;;;;1.52;80.64;97631.75;1728372;82;21793;-56
2021/12/01 07:54:32;;;;;;;5.42;4.85;;;;;;;1.53;80.27;97642.52;1730602;82;21536;-57
2021/12/01 07:57:01;;;;;;;;;;;;;;;1.46;80.03;97642.81;1733819;82;21460;-56
2021/12/01 07:59:29;;;;;;;5.90;5.22;;;;;;;1.41;80.24;97644.72;1695700;83;20441;-57
2021/12/01 08:01:57;;;;;;;6.37;5.67;;;;;;;1.50;80.28;97650.84;1752047;80;21598;-56
2021/12/01 08:04:24;;;;;;;6.40;5.58;;;;;;;1.50;80.08;97656.03;1768054;80;21827;-58
2021/12/01 08:06:52;;;;;;;6.47;5.67;;;;;;;1.40;80.31;97663.30;1754805;80;21576;-57
2021/12/01 08:09:20;;;;;;;6.92;6.20;;;;;;;1.36;80.56;97664.33;1754602;80;21508;-57
2021/12/01 08:11:47;;;;;;;7.33;6.28;;;;;;;1.32;80.70;97666.19;1746871;80;21520;-57
2021/12/01 08:14:14;;;;;;;7.08;6.37;;;;;;;1.36;81.02;97674.23;1758914;80;21453;-56
2021/12/01 08:16:43;;;;;;;7.40;6.50;;;;;;;1.42;81.08;97672.31;1758504;80;20996;-55
2021/12/01 08:19:10;;;;;;;7.40;6.70;;;;;;;1.49;80.83;97676.37;1749940;80;21634;-57
2021/12/01 08:21:37;;;;;;;9.00;6.35;;;;;;;1.42;81.11;97670.56;1751663;80;21511;-58
2021/12/01 08:24:05;;;;;;;13.93;7.67;;;;;;;1.40;81.13;97679.30;1761468;80;21503;-56
2021/12/01 08:26:32;;;;;;;10.68;5.80;;;;;;;1.38;81.15;97675.93;1765277;80;21542;-57
2021/12/01 08:28:59;;;;;;;6.40;5.80;;;;;;;1.51;81.19;97679.75;1761015;80;21875;-56
2021/12/01 08:31:26;;;;;;;7.05;5.75;;;;;;;1.53;81.22;97687.84;1762838;80;24778;-56
2021/12/01 08:33:53;;;;;;;8.33;6.40;;;;;;;1.57;81.05;97698.09;1766409;80;21506;-57
2021/12/01 08:36:20;;;;;;;5.80;5.20;;;;;;;1.54;80.60;97704.22;1767273;79;21482;-58
2021/12/01 08:38:47;;;;;;;6.10;5.50;;;;;;;1.49;80.98;97703.11;1759697;79;21823;-56
2021/12/01 08:41:14;;;;;;;6.03;5.17;;;;;;;1.57;80.96;97704.11;1717563;81;21671;-56
2021/12/01 08:43:42;;;;;;;6.28;5.25;;;;;;;1.74;80.32;97713.84;1722999;81;21449;-57
2021/12/01 08:46:09;;;;;;;5.70;4.65;;;;;;;1.73;79.80;97718.19;1727916;81;21493;-57
2021/12/01 08:48:36;;;;;;;6.55;5.53;;;;;;;1.64;79.80;97723.72;1756941;80;21481;-57
2021/12/01 08:51:04;;;;;;;6.37;5.78;;;;;;;1.57;79.69;97722.70;1746945;80;21095;-57
2021/12/01 08:53:34;;;;;;;4.90;4.45;;;;;;;1.51;79.68;97719.89;1758826;80;21767;-58
2021/12/01 08:56:01;;;;;;;5.97;5.47;;;;;;;1.53;80.30;97722.81;1754078;80;21749;-57
2021/12/01 08:58:28;;;;;;;5.75;5.25;;;;;;;1.62;80.27;97723.36;1757046;80;21542;-57
2021/12/01 09:00:56;;;;;;;5.97;5.37;;;;;;;1.71;79.89;97721.72;1763274;80;21539;-57
2021/12/01 09:03:23;;;;;;;5.78;5.20;;;;;;;1.71;80.11;97728.20;1760337;80;21535;-57
2021/12/01 09:05:50;;;;;;;6.60;5.97;;;;;;;1.77;80.52;97727.95;1758194;80;22107;-57
2021/12/01 09:08:20;;;;;;;6.15;5.55;;;;;;;1.84;80.26;97732.02;1755132;80;21532;-58
2021/12/01 09:12:23;;;;;;;5.70;5.20;;;;;;;2.03;79.90;97733.45;1779873;79;23053;-58
2021/12/01 09:14:52;;;;;;;6.97;5.90;;;;;;;2.04;79.95;97733.85;1756399;80;27084;-57
2021/12/01 09:17:19;;;;;;;7.10;6.42;;;;;;;2.07;79.28;97745.41;1753226;80;21798;-58
2021/12/01 09:19:46;;;;;;;6.60;6.00;;;;;;;2.06;79.47;97748.05;1751476;80;21686;-59
2021/12/01 09:22:14;;;;;;;8.65;6.08;;;;;;;2.06;79.08;97754.08;1753124;80;21074;-57
2021/12/01 09:24:41;;;;;;;5.90;5.30;;;;;;;2.10;79.04;97754.80;1750195;80;21077;-57
2021/12/01 09:27:08;;;;;;;7.20;5.92;;;;;;;2.20;79.04;97753.53;1741423;80;21577;-57
2021/12/01 09:29:35;;;;;;;7.17;6.58;;;;;;;2.23;78.68;97756.02;1743738;80;21809;-56
2021/12/01 09:32:03;;;;;;;6.17;5.65;;;;;;;2.19;77.12;97755.75;1736187;80;21423;-57
2021/12/01 09:34:31;;;;;;;5.55;5.05;;;;;;;2.07;77.76;97758.80;1735016;81;21423;-57
2021/12/01 09:36:58;;;;;;;5.83;5.33;;;;;;;2.02;77.16;97768.52;1738900;81;21481;-57
2021/12/01 09:39:25;;;;;;;6.10;5.60;;;;;;;1.91;77.83;97771.52;1736988;80;21929;-58
2021/12/01 09:41:52;;;;;;;6.25;5.40;;;;;;;1.99;77.88;97780.30;1737316;80;21780;-57
2021/12/01 09:44:19;;;;;;;6.08;5.37;;;;;;;2.00;77.63;97781.97;1753505;80;21601;-57
2021/12/01 09:46:47;;;;;;;5.80;5.20;;;;;;;2.05;76.22;97786.08;1723386;80;21629;-57
2021/12/01 09:49:14;;;;;;;7.15;5.58;;;;;;;1.87;77.07;97802.34;1752167;80;21467;-57
2021/12/01 09:51:40;;;;;;;6.12;5.58;;;;;;;1.77;77.71;97810.88;1753485;80;21592;-57
2021/12/01 09:54:08;;;;;;;8.67;6.97;;;;;;;1.77;78.07;97810.05;1743326;80;22108;-57
2021/12/01 09:56:35;;;;;;;21.85;16.82;;;;;;;1.76;78.65;97810.50;1752465;80;21089;-58
2021/12/01 09:59:04;;;;;;;13.62;10.72;;;;;;;1.92;78.43;97810.77;1759511;80;21436;-58
2021/12/01 10:01:31;;;;;;;8.18;7.25;;;;;;;1.94;78.48;97822.80;1735740;80;21439;-57
2021/12/01 10:03:58;;;;;;;9.53;7.45;;;;;;;1.97;78.14;97825.70;1745075;81;21057;-58
2021/12/01 10:06:26;;;;;;;9.18;8.28;;;;;;;1.96;78.27;97826.63;1737789;81;22041;-57
2021/12/01 10:09:01;;;;;;;9.08;8.18;;;;;;;1.90;77.74;97835.48;1734132;81;21432;-57
2021/12/01 10:11:33;;;;;;;9.15;8.18;;;;;;;1.87;77.96;97832.14;1725316;81;21452;-56
2021/12/01 10:14:07;;;;;;;8.98;8.10;;;;;;;1.86;77.94;97833.03;1715054;81;21476;-56
2021/12/01 10:16:39;;;;;;;10.70;8.98;;;;;;;2.00;78.01;97842.45;1727787;80;21584;-62
2021/12/01 10:19:09;;;;;;;13.22;10.78;;;;;;;2.03;77.82;97847.97;1737309;80;21763;-58
2021/12/01 10:21:41;;;;;;;10.58;8.85;;;;;;;1.99;77.99;97851.13;1701331;82;21557;-59
2021/12/01 10:24:19;;;;;;;10.80;8.20;;;;;;;1.97;77.36;97849.04;1728351;80;21053;-57
2021/12/01 10:26:52;;;;;;;17.37;12.87;;;;;;;1.90;77.29;97856.21;1716455;80;21501;-58
2021/12/01 10:29:23;;;;;;;38.15;22.77;;;;;;;1.81;77.63;97863.45;1735548;80;21538;-57
2021/12/01 10:31:54;;;;;;;41.02;24.77;;;;;;;1.84;77.93;97864.19;1736383;80;21710;-56
2021/12/01 10:34:31;;;;;;;51.63;29.12;;;;;;;2.00;77.97;97868.38;1717457;80;21831;-57
2021/12/01 10:37:23;;;;;;;37.00;23.05;;;;;;;2.07;77.46;97866.39;1724304;81;21510;-55
2021/12/01 10:40:11;;;;;;;26.10;17.37;;;;;;;2.00;77.67;97868.80;1731360;81;21512;-55
2021/12/01 10:43:01;;;;;;;16.27;8.93;;;;;;;1.95;77.52;97879.36;1724547;80;21515;-55
2021/12/01 10:45:35;;;;;;;8.95;7.05;;;;;;;1.92;77.21;97879.45;1714300;81;21763;-57
2021/12/01 10:48:05;;;;;;;8.70;7.22;;;;;;;1.84;77.30;97886.67;1728531;80;21435;-55
2021/12/01 10:50:35;;;;;;;21.48;14.87;;;;;;;1.88;77.70;97885.20;1716178;80;21656;-56
2021/12/01 10:53:12;;;;;;;25.65;17.55;;;;;;;1.91;77.56;97890.74;1727993;81;21480;-56
2021/12/01 10:55:58;;;;;;;16.48;12.78;;;;;;;1.84;77.65;97889.27;1726783;80;21510;-56
2021/12/01 10:58:40;;;;;;;10.98;8.85;;;;;;;1.84;77.84;97885.38;1723324;80;22060;-57
2021/12/01 11:01:25;;;;;;;12.03;9.40;;;;;;;1.73;77.79;97893.52;1692900;82;21589;-55
2021/12/01 11:03:52;;;;;;;9.30;6.95;;;;;;;1.74;78.12;97897.81;1731374;80;21444;-56
2021/12/01 11:06:23;;;;;;;8.73;7.55;;;;;;;1.92;78.03;97902.36;1729870;81;21480;-56
2021/12/01 11:08:55;;;;;;;8.25;7.45;;;;;;;1.97;77.80;97915.59;1727870;81;21539;-56
2021/12/01 11:11:24;;;;;;;12.40;8.48;;;;;;;1.99;77.55;97914.63;1728743;81;21820;-55
2021/12/01 11:13:52;;;;;;;8.30;7.15;;;;;;;1.94;77.05;97912.64;1720419;81;21450;-56
2021/12/01 11:16:19;;;;;;;11.93;9.73;;;;;;;1.91;76.88;97902.41;1733931;81;21038;-56
2021/12/01 11:18:50;;;;;;;9.75;8.50;;;;;;;1.88;77.12;97915.46;1735567;81;21671;-54
2021/12/01 11:21:19;;;;;;;15.35;11.18;;;;;;;1.86;77.08;97911.63;1742692;80;21642;-56
2021/12/01 11:23:56;;;;;;;16.62;11.43;;;;;;;2.00;77.32;97912.87;1744915;80;21745;-56
2021/12/01 11:26:26;;;;;;;13.07;10.03;;;;;;;2.04;77.04;97910.59;1750346;80;21466;-56
2021/12/01 11:29:06;;;;;;;15.40;10.80;;;;;;;1.99;76.33;97910.74;1728222;81;21443;-56
2021/12/01 11:31:40;;;;;;;14.13;10.13;;;;;;;1.91;76.79;97911.02;1733367;80;21501;-56
2021/12/01 11:34:12;;;;;;;12.63;9.48;;;;;;;1.88;76.91;97917.59;1718549;80;21522;-57
2021/12/01 11:36:47;;;;;;;15.00;10.45;;;;;;;1.86;76.91;97924.58;1744497;80;21482;-55
2021/12/01 11:39:19;;;;;;;12.58;10.40;;;;;;;1.88;76.94;97927.13;1732325;80;21685;-56
2021/12/01 11:41:46;;;;;;;12.03;9.80;;;;;;;2.01;76.74;97930.97;1724184;80;21459;-56
2021/12/01 11:44:14;;;;;;;11.50;8.85;;;;;;;2.05;76.71;97934.30;1714811;80;21005;-56
2021/12/01 11:46:41;;;;;;;10.18;9.03;;;;;;;2.04;76.00;97940.41;1719863;80;26868;-56
2021/12/01 11:49:10;;;;;;;10.82;8.75;;;;;;;1.97;75.78;97942.36;1717101;80;22032;-55
2021/12/01 11:51:54;;;;;;;12.65;9.55;;;;;;;1.93;75.75;97951.98;1714083;82;21599;-56
2021/12/01 11:54:22;;;;;;;11.40;8.45;;;;;;;1.93;76.38;97955.88;1682326;84;21544;-55
2021/12/01 11:57:05;;;;;;;11.73;8.83;;;;;;;1.97;75.09;97960.96;1660750;85;21559;-56
2021/12/01 11:59:38;;;;;;;11.57;8.75;;;;;;;2.05;75.29;97955.88;1682167;84;21486;-56